sensor_id;sensor_type;location;lat;lon;timestamp;P1;durP1;ratioP1;P2;durP2;ratioP2
76745;SDS011;65671;49.976;20.038;2023-03-01T00:01:06;36.85;;;17.98;;
76745;SDS011;65671;49.976;20.038;2023-03-01T00:03:34;36.08;;;17.08;;
76745;SDS011;65671;49.976;20.038;2023-03-01T00:08:26;32.30;;;16.25;;
76745;SDS011;65671;49.976;20.038;2023-03-01T00:11:05;31.88;;;17.00;;
76745;SDS011;65671;49.976;20.038;2023-03-01T00:13:32;36.03;;;15.70;;
76745;SDS011;65671;49.976;20.038;2023-03-01T00:15:58;28.17;;;14.35;;
76745;SDS011;65671;49.976;20.038;2023-03-01T00:18:26;31.55;;;14.48;;
76745;SDS011;65671;49.976;20.038;2023-03-01T00:20:52;32.97;;;14.88;;
76745;SDS011;65671;49.976;20.038;2023-03-01T00:23:19;30.52;;;15.40;;
76745;SDS011;65671;49.976;20.038;2023-03-01T00:28:11;27.13;;;13.48;;
76745;SDS011;65671;49.976;20.038;2023-03-01T00:30:36;26.02;;;12.40;;
76745;SDS011;65671;49.976;20.038;2023-03-01T00:35:27;27.73;;;13.98;;
76745;SDS011;65671;49.976;20.038;2023-03-01T00:37:53;23.25;;;12.68;;
76745;SDS011;65671;49.976;20.038;2023-03-01T00:40:25;27.40;;;13.88;;
76745;SDS011;65671;49.976;20.038;2023-03-01T00:42:52;29.00;;;13.02;;
76745;SDS011;65671;49.976;20.038;2023-03-01T00:45:18;25.73;;;13.52;;
76745;SDS011;65671;49.976;20.038;2023-03-01T00:50:10;26.23;;;12.50;;
76745;SDS011;65671;49.976;20.038;2023-03-01T00:52:36;30.63;;;13.07;;
76745;SDS011;65671;49.976;20.038;2023-03-01T00:57:28;27.40;;;12.65;;
76745;SDS011;65671;49.976;20.038;2023-03-01T00:59:54;25.67;;;13.23;;
76745;SDS011;65671;49.976;20.038;2023-03-01T01:04:45;26.83;;;12.35;;
76745;SDS011;65671;49.976;20.038;2023-03-01T01:07:11;31.70;;;13.88;;
76745;SDS011;65671;49.976;20.038;2023-03-01T01:12:02;25.50;;;11.57;;
76745;SDS011;65671;49.976;20.038;2023-03-01T01:14:28;23.13;;;12.45;;
76745;SDS011;65671;49.976;20.038;2023-03-01T01:16:54;31.13;;;13.43;;
76745;SDS011;65671;49.976;20.038;2023-03-01T01:21:45;41.03;;;18.95;;
76745;SDS011;65671;49.976;20.038;2023-03-01T01:24:11;42.53;;;22.38;;
76745;SDS011;65671;49.976;20.038;2023-03-01T01:26:37;45.40;;;19.67;;
76745;SDS011;65671;49.976;20.038;2023-03-01T01:29:03;47.08;;;22.20;;
76745;SDS011;65671;49.976;20.038;2023-03-01T01:31:30;39.70;;;20.13;;
76745;SDS011;65671;49.976;20.038;2023-03-01T01:33:57;48.20;;;23.27;;
76745;SDS011;65671;49.976;20.038;2023-03-01T01:36:24;52.13;;;23.65;;
76745;SDS011;65671;49.976;20.038;2023-03-01T01:38:50;54.70;;;24.38;;
76745;SDS011;65671;49.976;20.038;2023-03-01T01:41:16;44.50;;;20.33;;
76745;SDS011;65671;49.976;20.038;2023-03-01T01:43:44;45.40;;;21.83;;
76745;SDS011;65671;49.976;20.038;2023-03-01T01:49:07;54.60;;;23.35;;
76745;SDS011;65671;49.976;20.038;2023-03-01T01:51:54;51.78;;;23.60;;
76745;SDS011;65671;49.976;20.038;2023-03-01T01:54:31;55.05;;;22.45;;
76745;SDS011;65671;49.976;20.038;2023-03-01T01:57:02;51.00;;;22.67;;
76745;SDS011;65671;49.976;20.038;2023-03-01T01:59:33;54.70;;;23.58;;
76745;SDS011;65671;49.976;20.038;2023-03-01T02:01:59;49.22;;;23.90;;
76745;SDS011;65671;49.976;20.038;2023-03-01T02:04:28;54.25;;;23.33;;
76745;SDS011;65671;49.976;20.038;2023-03-01T02:07:01;63.13;;;24.30;;
76745;SDS011;65671;49.976;20.038;2023-03-01T02:09:34;54.75;;;23.50;;
76745;SDS011;65671;49.976;20.038;2023-03-01T02:12:01;60.75;;;27.17;;
76745;SDS011;65671;49.976;20.038;2023-03-01T02:14:29;58.90;;;26.02;;
76745;SDS011;65671;49.976;20.038;2023-03-01T02:16:54;60.28;;;25.95;;
76745;SDS011;65671;49.976;20.038;2023-03-01T02:22:18;48.00;;;22.65;;
76745;SDS011;65671;49.976;20.038;2023-03-01T02:27:17;53.45;;;21.60;;
76745;SDS011;65671;49.976;20.038;2023-03-01T02:29:49;50.88;;;23.08;;
76745;SDS011;65671;49.976;20.038;2023-03-01T02:32:15;45.63;;;21.00;;
76745;SDS011;65671;49.976;20.038;2023-03-01T02:34:50;53.83;;;22.77;;
76745;SDS011;65671;49.976;20.038;2023-03-01T02:37:18;50.80;;;22.35;;
76745;SDS011;65671;49.976;20.038;2023-03-01T02:39:50;52.35;;;23.88;;
76745;SDS011;65671;49.976;20.038;2023-03-01T02:42:31;47.58;;;19.42;;
76745;SDS011;65671;49.976;20.038;2023-03-01T02:45:05;48.70;;;21.08;;
76745;SDS011;65671;49.976;20.038;2023-03-01T02:47:31;41.28;;;19.67;;
76745;SDS011;65671;49.976;20.038;2023-03-01T02:49:57;43.92;;;19.52;;
76745;SDS011;65671;49.976;20.038;2023-03-01T02:55:12;48.47;;;22.15;;
76745;SDS011;65671;49.976;20.038;2023-03-01T02:57:40;55.15;;;23.08;;
76745;SDS011;65671;49.976;20.038;2023-03-01T03:00:09;57.05;;;23.10;;
76745;SDS011;65671;49.976;20.038;2023-03-01T03:02:45;55.17;;;23.10;;
76745;SDS011;65671;49.976;20.038;2023-03-01T03:05:14;67.65;;;23.00;;
76745;SDS011;65671;49.976;20.038;2023-03-01T03:07:42;60.22;;;23.70;;
76745;SDS011;65671;49.976;20.038;2023-03-01T03:10:11;51.17;;;23.15;;
76745;SDS011;65671;49.976;20.038;2023-03-01T03:12:39;48.25;;;22.17;;
76745;SDS011;65671;49.976;20.038;2023-03-01T03:15:06;51.08;;;24.02;;
76745;SDS011;65671;49.976;20.038;2023-03-01T03:17:37;59.03;;;25.48;;
76745;SDS011;65671;49.976;20.038;2023-03-01T03:20:05;58.95;;;25.02;;
76745;SDS011;65671;49.976;20.038;2023-03-01T03:22:36;59.80;;;26.67;;
76745;SDS011;65671;49.976;20.038;2023-03-01T03:25:04;64.82;;;29.40;;
76745;SDS011;65671;49.976;20.038;2023-03-01T03:27:30;65.93;;;30.08;;
76745;SDS011;65671;49.976;20.038;2023-03-01T03:29:57;77.38;;;31.90;;
76745;SDS011;65671;49.976;20.038;2023-03-01T03:32:22;69.05;;;31.50;;
76745;SDS011;65671;49.976;20.038;2023-03-01T03:34:48;58.95;;;27.08;;
76745;SDS011;65671;49.976;20.038;2023-03-01T03:37:14;50.80;;;23.83;;
76745;SDS011;65671;49.976;20.038;2023-03-01T03:40:00;50.22;;;22.98;;
76745;SDS011;65671;49.976;20.038;2023-03-01T03:42:25;63.92;;;27.42;;
76745;SDS011;65671;49.976;20.038;2023-03-01T03:44:51;59.75;;;27.30;;
76745;SDS011;65671;49.976;20.038;2023-03-01T03:47:17;62.92;;;25.80;;
76745;SDS011;65671;49.976;20.038;2023-03-01T03:49:43;60.05;;;25.05;;
76745;SDS011;65671;49.976;20.038;2023-03-01T03:52:08;52.08;;;24.92;;
76745;SDS011;65671;49.976;20.038;2023-03-01T03:54:39;58.08;;;26.67;;
76745;SDS011;65671;49.976;20.038;2023-03-01T03:57:06;54.72;;;25.73;;
76745;SDS011;65671;49.976;20.038;2023-03-01T03:59:32;55.15;;;24.65;;
76745;SDS011;65671;49.976;20.038;2023-03-01T04:01:58;57.38;;;25.67;;
76745;SDS011;65671;49.976;20.038;2023-03-01T04:04:23;51.65;;;23.55;;
76745;SDS011;65671;49.976;20.038;2023-03-01T04:06:49;54.90;;;25.27;;
76745;SDS011;65671;49.976;20.038;2023-03-01T04:09:14;55.70;;;24.77;;
76745;SDS011;65671;49.976;20.038;2023-03-01T04:11:40;59.90;;;26.80;;
76745;SDS011;65671;49.976;20.038;2023-03-01T04:14:05;61.60;;;26.67;;
76745;SDS011;65671;49.976;20.038;2023-03-01T04:16:31;63.53;;;28.10;;
76745;SDS011;65671;49.976;20.038;2023-03-01T04:18:56;68.97;;;29.65;;
76745;SDS011;65671;49.976;20.038;2023-03-01T04:21:24;61.65;;;27.27;;
76745;SDS011;65671;49.976;20.038;2023-03-01T04:26:17;55.30;;;20.77;;
76745;SDS011;65671;49.976;20.038;2023-03-01T04:28:45;55.20;;;25.73;;
76745;SDS011;65671;49.976;20.038;2023-03-01T04:31:12;57.10;;;26.00;;
76745;SDS011;65671;49.976;20.038;2023-03-01T04:36:11;66.18;;;28.98;;
76745;SDS011;65671;49.976;20.038;2023-03-01T04:38:38;68.10;;;28.38;;
76745;SDS011;65671;49.976;20.038;2023-03-01T04:41:08;62.60;;;27.05;;
76745;SDS011;65671;49.976;20.038;2023-03-01T04:43:36;61.63;;;28.15;;
76745;SDS011;65671;49.976;20.038;2023-03-01T04:46:03;58.00;;;26.13;;
76745;SDS011;65671;49.976;20.038;2023-03-01T04:48:32;70.93;;;28.88;;
76745;SDS011;65671;49.976;20.038;2023-03-01T04:50:58;63.00;;;27.50;;
76745;SDS011;65671;49.976;20.038;2023-03-01T04:53:25;61.45;;;27.15;;
76745;SDS011;65671;49.976;20.038;2023-03-01T04:55:51;60.72;;;28.17;;
76745;SDS011;65671;49.976;20.038;2023-03-01T04:58:17;57.70;;;27.45;;
76745;SDS011;65671;49.976;20.038;2023-03-01T05:00:42;69.75;;;31.00;;
76745;SDS011;65671;49.976;20.038;2023-03-01T05:03:11;64.85;;;31.15;;
76745;SDS011;65671;49.976;20.038;2023-03-01T05:05:37;56.90;;;27.27;;
76745;SDS011;65671;49.976;20.038;2023-03-01T05:08:04;56.10;;;26.15;;
76745;SDS011;65671;49.976;20.038;2023-03-01T05:10:32;59.10;;;25.95;;
76745;SDS011;65671;49.976;20.038;2023-03-01T05:13:00;57.90;;;27.33;;
76745;SDS011;65671;49.976;20.038;2023-03-01T05:15:27;47.58;;;22.92;;
76745;SDS011;65671;49.976;20.038;2023-03-01T05:17:56;51.97;;;23.67;;
76745;SDS011;65671;49.976;20.038;2023-03-01T05:20:24;54.28;;;24.42;;
76745;SDS011;65671;49.976;20.038;2023-03-01T05:22:57;58.75;;;26.23;;
76745;SDS011;65671;49.976;20.038;2023-03-01T05:25:25;60.10;;;23.60;;
76745;SDS011;65671;49.976;20.038;2023-03-01T05:27:51;51.13;;;22.17;;
76745;SDS011;65671;49.976;20.038;2023-03-01T05:30:17;46.75;;;23.02;;
76745;SDS011;65671;49.976;20.038;2023-03-01T05:32:47;54.83;;;24.10;;
76745;SDS011;65671;49.976;20.038;2023-03-01T05:35:16;52.85;;;23.88;;
76745;SDS011;65671;49.976;20.038;2023-03-01T05:37:43;51.13;;;22.40;;
76745;SDS011;65671;49.976;20.038;2023-03-01T05:40:12;50.45;;;22.42;;
76745;SDS011;65671;49.976;20.038;2023-03-01T05:42:52;54.85;;;22.60;;
76745;SDS011;65671;49.976;20.038;2023-03-01T05:45:20;52.65;;;22.45;;
76745;SDS011;65671;49.976;20.038;2023-03-01T05:47:47;39.85;;;19.85;;
76745;SDS011;65671;49.976;20.038;2023-03-01T05:50:57;49.47;;;21.27;;
76745;SDS011;65671;49.976;20.038;2023-03-01T05:53:15;46.13;;;21.45;;
76745;SDS011;65671;49.976;20.038;2023-03-01T05:55:44;52.55;;;22.48;;
76745;SDS011;65671;49.976;20.038;2023-03-01T05:58:12;45.60;;;20.67;;
76745;SDS011;65671;49.976;20.038;2023-03-01T06:00:40;44.70;;;21.17;;
76745;SDS011;65671;49.976;20.038;2023-03-01T06:03:09;64.88;;;26.45;;
76745;SDS011;65671;49.976;20.038;2023-03-01T06:05:36;61.88;;;27.77;;
76745;SDS011;65671;49.976;20.038;2023-03-01T06:08:02;59.08;;;28.58;;
76745;SDS011;65671;49.976;20.038;2023-03-01T06:10:28;60.10;;;24.40;;
76745;SDS011;65671;49.976;20.038;2023-03-01T06:12:54;59.45;;;26.27;;
76745;SDS011;65671;49.976;20.038;2023-03-01T06:15:20;60.40;;;25.38;;
76745;SDS011;65671;49.976;20.038;2023-03-01T06:17:47;56.05;;;25.90;;
76745;SDS011;65671;49.976;20.038;2023-03-01T06:20:17;57.85;;;24.73;;
76745;SDS011;65671;49.976;20.038;2023-03-01T06:22:45;55.47;;;24.63;;
76745;SDS011;65671;49.976;20.038;2023-03-01T06:25:12;50.38;;;21.15;;
76745;SDS011;65671;49.976;20.038;2023-03-01T06:27:40;45.65;;;20.27;;
76745;SDS011;65671;49.976;20.038;2023-03-01T06:30:07;41.28;;;18.13;;
76745;SDS011;65671;49.976;20.038;2023-03-01T06:32:36;39.30;;;18.85;;
76745;SDS011;65671;49.976;20.038;2023-03-01T06:35:02;37.55;;;19.15;;
76745;SDS011;65671;49.976;20.038;2023-03-01T06:37:29;39.63;;;18.25;;
76745;SDS011;65671;49.976;20.038;2023-03-01T06:39:54;73.60;;;30.25;;
76745;SDS011;65671;49.976;20.038;2023-03-01T06:44:45;77.47;;;29.38;;
76745;SDS011;65671;49.976;20.038;2023-03-01T06:47:11;77.28;;;32.70;;
76745;SDS011;65671;49.976;20.038;2023-03-01T06:49:36;69.90;;;31.90;;
76745;SDS011;65671;49.976;20.038;2023-03-01T06:52:02;76.78;;;37.35;;
76745;SDS011;65671;49.976;20.038;2023-03-01T06:56:54;88.43;;;36.30;;
76745;SDS011;65671;49.976;20.038;2023-03-01T07:01:45;79.57;;;34.85;;
76745;SDS011;65671;49.976;20.038;2023-03-01T07:04:11;89.35;;;40.60;;
76745;SDS011;65671;49.976;20.038;2023-03-01T07:06:38;119.55;;;48.33;;
76745;SDS011;65671;49.976;20.038;2023-03-01T07:09:04;116.28;;;50.85;;
76745;SDS011;65671;49.976;20.038;2023-03-01T07:13:55;93.57;;;38.97;;
76745;SDS011;65671;49.976;20.038;2023-03-01T07:16:21;87.03;;;39.47;;
76745;SDS011;65671;49.976;20.038;2023-03-01T07:18:46;94.13;;;40.22;;
76745;SDS011;65671;49.976;20.038;2023-03-01T07:21:13;91.97;;;39.70;;
76745;SDS011;65671;49.976;20.038;2023-03-01T07:23:39;90.93;;;41.58;;
76745;SDS011;65671;49.976;20.038;2023-03-01T07:26:06;76.93;;;36.22;;
76745;SDS011;65671;49.976;20.038;2023-03-01T07:28:31;71.30;;;32.90;;
76745;SDS011;65671;49.976;20.038;2023-03-01T07:31:04;56.72;;;25.77;;
76745;SDS011;65671;49.976;20.038;2023-03-01T07:33:31;61.35;;;28.10;;
76745;SDS011;65671;49.976;20.038;2023-03-01T07:36:01;57.15;;;26.98;;
76745;SDS011;65671;49.976;20.038;2023-03-01T07:38:28;58.75;;;26.83;;
76745;SDS011;65671;49.976;20.038;2023-03-01T07:40:59;61.67;;;28.10;;
76745;SDS011;65671;49.976;20.038;2023-03-01T07:43:30;51.85;;;24.90;;
76745;SDS011;65671;49.976;20.038;2023-03-01T07:46:02;53.17;;;23.15;;
76745;SDS011;65671;49.976;20.038;2023-03-01T07:48:29;43.92;;;21.00;;
76745;SDS011;65671;49.976;20.038;2023-03-01T07:51:03;45.97;;;20.13;;
76745;SDS011;65671;49.976;20.038;2023-03-01T07:53:30;42.40;;;18.98;;
76745;SDS011;65671;49.976;20.038;2023-03-01T07:58:36;35.30;;;16.80;;
76745;SDS011;65671;49.976;20.038;2023-03-01T08:01:04;30.20;;;15.32;;
76745;SDS011;65671;49.976;20.038;2023-03-01T08:03:31;29.52;;;14.73;;
76745;SDS011;65671;49.976;20.038;2023-03-01T08:06:01;30.50;;;15.48;;
76745;SDS011;65671;49.976;20.038;2023-03-01T08:08:28;49.70;;;22.45;;
76745;SDS011;65671;49.976;20.038;2023-03-01T08:10:58;45.72;;;22.42;;
76745;SDS011;65671;49.976;20.038;2023-03-01T08:13:25;56.45;;;25.48;;
76745;SDS011;65671;49.976;20.038;2023-03-01T08:15:52;62.40;;;27.13;;
76745;SDS011;65671;49.976;20.038;2023-03-01T08:20:44;61.42;;;27.80;;
76745;SDS011;65671;49.976;20.038;2023-03-01T08:25:35;56.72;;;25.85;;
76745;SDS011;65671;49.976;20.038;2023-03-01T08:28:02;54.65;;;25.38;;
76745;SDS011;65671;49.976;20.038;2023-03-01T08:32:53;51.60;;;24.95;;
76745;SDS011;65671;49.976;20.038;2023-03-01T08:37:44;53.90;;;25.50;;
76745;SDS011;65671;49.976;20.038;2023-03-01T08:42:38;49.08;;;24.08;;
76745;SDS011;65671;49.976;20.038;2023-03-01T08:45:06;56.88;;;25.67;;
76745;SDS011;65671;49.976;20.038;2023-03-01T08:47:32;63.65;;;30.15;;
76745;SDS011;65671;49.976;20.038;2023-03-01T08:49:59;62.83;;;28.25;;
76745;SDS011;65671;49.976;20.038;2023-03-01T08:52:25;62.00;;;28.30;;
76745;SDS011;65671;49.976;20.038;2023-03-01T08:54:51;54.22;;;27.75;;
76745;SDS011;65671;49.976;20.038;2023-03-01T08:59:43;58.47;;;28.65;;
76745;SDS011;65671;49.976;20.038;2023-03-01T09:04:37;53.15;;;24.63;;
76745;SDS011;65671;49.976;20.038;2023-03-01T09:09:29;51.30;;;24.77;;
76745;SDS011;65671;49.976;20.038;2023-03-01T09:14:19;54.63;;;25.10;;
76745;SDS011;65671;49.976;20.038;2023-03-01T09:16:45;60.97;;;27.90;;
76745;SDS011;65671;49.976;20.038;2023-03-01T09:19:12;53.90;;;26.80;;
76745;SDS011;65671;49.976;20.038;2023-03-01T09:21:38;54.00;;;25.20;;
76745;SDS011;65671;49.976;20.038;2023-03-01T09:24:04;51.75;;;24.55;;
76745;SDS011;65671;49.976;20.038;2023-03-01T09:26:31;52.67;;;25.30;;
76745;SDS011;65671;49.976;20.038;2023-03-01T09:31:22;47.00;;;22.58;;
76745;SDS011;65671;49.976;20.038;2023-03-01T09:33:49;52.00;;;23.73;;
76745;SDS011;65671;49.976;20.038;2023-03-01T09:36:21;53.13;;;25.83;;
76745;SDS011;65671;49.976;20.038;2023-03-01T09:38:48;44.20;;;23.27;;
76745;SDS011;65671;49.976;20.038;2023-03-01T09:41:21;46.72;;;23.15;;
76745;SDS011;65671;49.976;20.038;2023-03-01T09:44:30;39.20;;;20.25;;
76745;SDS011;65671;49.976;20.038;2023-03-01T09:47:18;44.80;;;20.42;;
76745;SDS011;65671;49.976;20.038;2023-03-01T09:52:38;39.50;;;19.13;;
76745;SDS011;65671;49.976;20.038;2023-03-01T09:55:08;47.45;;;21.25;;
76745;SDS011;65671;49.976;20.038;2023-03-01T09:57:41;40.85;;;21.52;;
76745;SDS011;65671;49.976;20.038;2023-03-01T10:02:44;39.08;;;19.95;;
76745;SDS011;65671;49.976;20.038;2023-03-01T10:10:28;41.47;;;18.77;;
76745;SDS011;65671;49.976;20.038;2023-03-01T10:12:59;37.25;;;18.90;;
76745;SDS011;65671;49.976;20.038;2023-03-01T10:15:35;40.55;;;18.20;;
76745;SDS011;65671;49.976;20.038;2023-03-01T10:18:10;38.03;;;17.52;;
76745;SDS011;65671;49.976;20.038;2023-03-01T10:23:16;36.78;;;20.23;;
76745;SDS011;65671;49.976;20.038;2023-03-01T10:30:53;32.13;;;16.38;;
76745;SDS011;65671;49.976;20.038;2023-03-01T10:33:23;31.48;;;16.08;;
76745;SDS011;65671;49.976;20.038;2023-03-01T10:35:59;31.50;;;16.45;;
76745;SDS011;65671;49.976;20.038;2023-03-01T10:38:24;32.35;;;16.15;;
76745;SDS011;65671;49.976;20.038;2023-03-01T10:40:58;37.22;;;17.20;;
76745;SDS011;65671;49.976;20.038;2023-03-01T10:43:32;34.10;;;16.50;;
76745;SDS011;65671;49.976;20.038;2023-03-01T10:46:21;31.23;;;16.27;;
76745;SDS011;65671;49.976;20.038;2023-03-01T10:51:32;38.70;;;16.90;;
76745;SDS011;65671;49.976;20.038;2023-03-01T10:53:58;33.63;;;16.27;;
76745;SDS011;65671;49.976;20.038;2023-03-01T10:56:24;37.65;;;17.65;;
76745;SDS011;65671;49.976;20.038;2023-03-01T10:58:57;30.98;;;17.10;;
76745;SDS011;65671;49.976;20.038;2023-03-01T11:01:25;35.00;;;15.82;;
76745;SDS011;65671;49.976;20.038;2023-03-01T11:06:31;28.15;;;14.90;;
76745;SDS011;65671;49.976;20.038;2023-03-01T11:11:43;30.23;;;15.90;;
76745;SDS011;65671;49.976;20.038;2023-03-01T11:14:15;25.48;;;14.77;;
76745;SDS011;65671;49.976;20.038;2023-03-01T11:17:02;28.63;;;16.00;;
76745;SDS011;65671;49.976;20.038;2023-03-01T11:19:40;32.17;;;15.93;;
76745;SDS011;65671;49.976;20.038;2023-03-01T11:22:13;27.23;;;13.90;;
76745;SDS011;65671;49.976;20.038;2023-03-01T11:24:51;28.67;;;15.50;;
76745;SDS011;65671;49.976;20.038;2023-03-01T11:29:52;25.35;;;13.23;;
76745;SDS011;65671;49.976;20.038;2023-03-01T11:32:40;22.33;;;11.77;;
76745;SDS011;65671;49.976;20.038;2023-03-01T11:35:16;30.08;;;14.52;;
76745;SDS011;65671;49.976;20.038;2023-03-01T11:40:52;23.50;;;12.73;;
76745;SDS011;65671;49.976;20.038;2023-03-01T11:43:28;25.85;;;13.52;;
76745;SDS011;65671;49.976;20.038;2023-03-01T11:56:34;26.55;;;14.13;;
76745;SDS011;65671;49.976;20.038;2023-03-01T12:12:58;29.42;;;11.50;;
76745;SDS011;65671;49.976;20.038;2023-03-01T12:15:45;23.85;;;12.43;;
76745;SDS011;65671;49.976;20.038;2023-03-01T12:18:22;25.00;;;12.93;;
76745;SDS011;65671;49.976;20.038;2023-03-01T12:26:34;23.73;;;12.27;;
76745;SDS011;65671;49.976;20.038;2023-03-01T12:37:33;22.58;;;10.18;;
76745;SDS011;65671;49.976;20.038;2023-03-01T12:40:14;17.70;;;10.30;;
76745;SDS011;65671;49.976;20.038;2023-03-01T12:43:02;20.40;;;10.77;;
76745;SDS011;65671;49.976;20.038;2023-03-01T12:46:55;19.23;;;11.10;;
76745;SDS011;65671;49.976;20.038;2023-03-01T12:51:30;16.58;;;9.38;;
76745;SDS011;65671;49.976;20.038;2023-03-01T12:54:01;20.75;;;10.50;;
76745;SDS011;65671;49.976;20.038;2023-03-01T12:56:37;22.90;;;9.55;;
76745;SDS011;65671;49.976;20.038;2023-03-01T12:59:15;20.27;;;9.77;;
76745;SDS011;65671;49.976;20.038;2023-03-01T13:15:36;16.40;;;8.90;;
76745;SDS011;65671;49.976;20.038;2023-03-01T13:31:02;17.13;;;7.80;;
76745;SDS011;65671;49.976;20.038;2023-03-01T13:36:01;16.27;;;8.68;;
76745;SDS011;65671;49.976;20.038;2023-03-01T13:38:46;15.57;;;7.35;;
76745;SDS011;65671;49.976;20.038;2023-03-01T13:41:49;16.45;;;8.63;;
76745;SDS011;65671;49.976;20.038;2023-03-01T13:50:15;24.38;;;11.05;;
76745;SDS011;65671;49.976;20.038;2023-03-01T13:52:42;17.02;;;9.52;;
76745;SDS011;65671;49.976;20.038;2023-03-01T13:55:17;18.25;;;10.65;;
76745;SDS011;65671;49.976;20.038;2023-03-01T13:57:50;17.30;;;9.77;;
76745;SDS011;65671;49.976;20.038;2023-03-01T14:00:26;20.50;;;10.73;;
76745;SDS011;65671;49.976;20.038;2023-03-01T14:03:01;20.42;;;11.15;;
76745;SDS011;65671;49.976;20.038;2023-03-01T14:05:27;20.73;;;10.15;;
76745;SDS011;65671;49.976;20.038;2023-03-01T14:07:53;16.00;;;9.70;;
76745;SDS011;65671;49.976;20.038;2023-03-01T14:10:19;18.70;;;10.63;;
76745;SDS011;65671;49.976;20.038;2023-03-01T14:12:50;22.27;;;11.00;;
76745;SDS011;65671;49.976;20.038;2023-03-01T14:15:27;17.77;;;9.45;;
76745;SDS011;65671;49.976;20.038;2023-03-01T14:20:39;19.73;;;10.68;;
76745;SDS011;65671;49.976;20.038;2023-03-01T14:23:13;17.60;;;10.55;;
76745;SDS011;65671;49.976;20.038;2023-03-01T14:25:47;22.75;;;11.00;;
76745;SDS011;65671;49.976;20.038;2023-03-01T14:28:21;21.05;;;10.77;;
76745;SDS011;65671;49.976;20.038;2023-03-01T14:30:52;23.65;;;11.63;;
76745;SDS011;65671;49.976;20.038;2023-03-01T14:36:06;21.25;;;10.48;;
76745;SDS011;65671;49.976;20.038;2023-03-01T14:38:46;20.58;;;10.93;;
76745;SDS011;65671;49.976;20.038;2023-03-01T14:41:13;20.85;;;11.07;;
76745;SDS011;65671;49.976;20.038;2023-03-01T14:43:44;18.30;;;10.50;;
76745;SDS011;65671;49.976;20.038;2023-03-01T14:46:26;18.27;;;9.70;;
76745;SDS011;65671;49.976;20.038;2023-03-01T14:49:06;23.15;;;11.40;;
76745;SDS011;65671;49.976;20.038;2023-03-01T14:51:39;18.55;;;10.98;;
76745;SDS011;65671;49.976;20.038;2023-03-01T14:57:14;22.73;;;11.80;;
76745;SDS011;65671;49.976;20.038;2023-03-01T14:59:49;18.60;;;10.38;;
76745;SDS011;65671;49.976;20.038;2023-03-01T15:02:18;19.85;;;10.10;;
76745;SDS011;65671;49.976;20.038;2023-03-01T15:04:46;19.90;;;9.75;;
76745;SDS011;65671;49.976;20.038;2023-03-01T15:07:16;20.15;;;10.63;;
76745;SDS011;65671;49.976;20.038;2023-03-01T15:09:57;20.20;;;10.43;;
76745;SDS011;65671;49.976;20.038;2023-03-01T15:12:25;22.33;;;10.98;;
76745;SDS011;65671;49.976;20.038;2023-03-01T15:14:59;21.63;;;11.13;;
76745;SDS011;65671;49.976;20.038;2023-03-01T15:19:56;24.02;;;11.32;;
76745;SDS011;65671;49.976;20.038;2023-03-01T15:22:22;25.92;;;13.05;;
76745;SDS011;65671;49.976;20.038;2023-03-01T15:24:49;24.58;;;11.80;;
76745;SDS011;65671;49.976;20.038;2023-03-01T15:27:17;23.65;;;12.52;;
76745;SDS011;65671;49.976;20.038;2023-03-01T15:29:48;30.35;;;15.38;;
76745;SDS011;65671;49.976;20.038;2023-03-01T15:34:51;23.88;;;12.45;;
76745;SDS011;65671;49.976;20.038;2023-03-01T15:40:19;36.45;;;16.20;;
76745;SDS011;65671;49.976;20.038;2023-03-01T15:42:59;27.63;;;14.35;;
76745;SDS011;65671;49.976;20.038;2023-03-01T15:45:27;27.33;;;13.40;;
76745;SDS011;65671;49.976;20.038;2023-03-01T15:47:56;46.53;;;17.88;;
76745;SDS011;65671;49.976;20.038;2023-03-01T15:50:30;50.90;;;19.70;;
76745;SDS011;65671;49.976;20.038;2023-03-01T15:53:03;37.38;;;16.17;;
76745;SDS011;65671;49.976;20.038;2023-03-01T15:55:33;25.80;;;13.93;;
76745;SDS011;65671;49.976;20.038;2023-03-01T15:58:00;54.67;;;18.65;;
76745;SDS011;65671;49.976;20.038;2023-03-01T16:00:28;88.07;;;24.63;;
76745;SDS011;65671;49.976;20.038;2023-03-01T16:02:54;69.90;;;23.45;;
76745;SDS011;65671;49.976;20.038;2023-03-01T16:07:52;41.80;;;16.02;;
76745;SDS011;65671;49.976;20.038;2023-03-01T16:10:19;35.83;;;16.60;;
76745;SDS011;65671;49.976;20.038;2023-03-01T16:12:45;36.13;;;16.42;;
76745;SDS011;65671;49.976;20.038;2023-03-01T16:15:14;42.58;;;19.10;;
76745;SDS011;65671;49.976;20.038;2023-03-01T16:17:43;32.05;;;15.90;;
76745;SDS011;65671;49.976;20.038;2023-03-01T16:20:09;26.23;;;14.52;;
76745;SDS011;65671;49.976;20.038;2023-03-01T16:22:35;25.20;;;13.35;;
76745;SDS011;65671;49.976;20.038;2023-03-01T16:25:00;33.75;;;15.20;;
76745;SDS011;65671;49.976;20.038;2023-03-01T16:27:27;29.65;;;15.35;;
76745;SDS011;65671;49.976;20.038;2023-03-01T16:29:54;36.50;;;17.63;;
76745;SDS011;65671;49.976;20.038;2023-03-01T16:32:19;36.53;;;17.70;;
76745;SDS011;65671;49.976;20.038;2023-03-01T16:34:45;44.72;;;26.05;;
76745;SDS011;65671;49.976;20.038;2023-03-01T16:37:14;41.22;;;20.92;;
76745;SDS011;65671;49.976;20.038;2023-03-01T16:39:41;42.42;;;20.50;;
76745;SDS011;65671;49.976;20.038;2023-03-01T16:42:07;43.60;;;20.52;;
76745;SDS011;65671;49.976;20.038;2023-03-01T16:44:32;43.40;;;21.10;;
76745;SDS011;65671;49.976;20.038;2023-03-01T16:46:58;40.17;;;21.83;;
76745;SDS011;65671;49.976;20.038;2023-03-01T16:49:23;42.63;;;21.65;;
76745;SDS011;65671;49.976;20.038;2023-03-01T16:51:49;47.47;;;23.23;;
76745;SDS011;65671;49.976;20.038;2023-03-01T16:56:40;47.78;;;23.52;;
76745;SDS011;65671;49.976;20.038;2023-03-01T16:59:06;46.92;;;22.33;;
76745;SDS011;65671;49.976;20.038;2023-03-01T17:01:32;46.35;;;21.63;;
76745;SDS011;65671;49.976;20.038;2023-03-01T17:04:05;43.90;;;20.63;;
76745;SDS011;65671;49.976;20.038;2023-03-01T17:06:32;39.88;;;18.83;;
76745;SDS011;65671;49.976;20.038;2023-03-01T17:11:24;32.13;;;15.50;;
76745;SDS011;65671;49.976;20.038;2023-03-01T17:13:50;30.98;;;14.88;;
76745;SDS011;65671;49.976;20.038;2023-03-01T17:18:42;32.15;;;14.35;;
76745;SDS011;65671;49.976;20.038;2023-03-01T17:23:34;41.03;;;18.52;;
76745;SDS011;65671;49.976;20.038;2023-03-01T17:26:02;43.00;;;19.20;;
76745;SDS011;65671;49.976;20.038;2023-03-01T17:28:29;44.78;;;20.10;;
76745;SDS011;65671;49.976;20.038;2023-03-01T17:30:56;35.80;;;16.88;;
76745;SDS011;65671;49.976;20.038;2023-03-01T17:33:23;40.90;;;17.52;;
76745;SDS011;65671;49.976;20.038;2023-03-01T17:38:14;28.15;;;13.82;;
76745;SDS011;65671;49.976;20.038;2023-03-01T17:40:41;36.00;;;14.80;;
76745;SDS011;65671;49.976;20.038;2023-03-01T17:43:13;46.47;;;17.33;;
76745;SDS011;65671;49.976;20.038;2023-03-01T17:45:40;35.75;;;16.75;;
76745;SDS011;65671;49.976;20.038;2023-03-01T17:48:08;33.88;;;14.35;;
76745;SDS011;65671;49.976;20.038;2023-03-01T17:50:36;27.42;;;13.57;;
76745;SDS011;65671;49.976;20.038;2023-03-01T17:53:04;29.88;;;13.35;;